sensor_id;sensor_type;location;lat;lon;timestamp;P1;durP1;ratioP1;P2;durP2;ratioP2
47749;SDS011;49810;48.160;10.812;2023-06-01T00:02:18;11.70;;;6.60;;
47749;SDS011;49810;48.160;10.812;2023-06-01T00:04:46;11.90;;;6.55;;
47749;SDS011;49810;48.160;10.812;2023-06-01T00:07:16;15.60;;;6.80;;
47749;SDS011;49810;48.160;10.812;2023-06-01T00:09:44;11.93;;;6.95;;
47749;SDS011;49810;48.160;10.812;2023-06-01T00:12:12;12.25;;;6.18;;
47749;SDS011;49810;48.160;10.812;2023-06-01T00:14:40;14.95;;;6.78;;
47749;SDS011;49810;48.160;10.812;2023-06-01T00:17:08;14.40;;;6.60;;
47749;SDS011;49810;48.160;10.812;2023-06-01T00:19:36;13.60;;;6.88;;
47749;SDS011;49810;48.160;10.812;2023-06-01T00:22:07;13.45;;;6.65;;
47749;SDS011;49810;48.160;10.812;2023-06-01T00:24:36;13.40;;;7.40;;
47749;SDS011;49810;48.160;10.812;2023-06-01T00:27:05;13.20;;;6.82;;
47749;SDS011;49810;48.160;10.812;2023-06-01T00:29:33;13.02;;;7.43;;
47749;SDS011;49810;48.160;10.812;2023-06-01T00:32:01;12.07;;;6.63;;
47749;SDS011;49810;48.160;10.812;2023-06-01T00:34:30;12.20;;;6.43;;
47749;SDS011;49810;48.160;10.812;2023-06-01T00:36:58;12.20;;;6.75;;
47749;SDS011;49810;48.160;10.812;2023-06-01T00:39:26;14.35;;;6.85;;
47749;SDS011;49810;48.160;10.812;2023-06-01T00:41:55;11.75;;;6.95;;
47749;SDS011;49810;48.160;10.812;2023-06-01T00:44:24;15.35;;;7.00;;
47749;SDS011;49810;48.160;10.812;2023-06-01T00:46:52;15.05;;;6.97;;
47749;SDS011;49810;48.160;10.812;2023-06-01T00:49:20;13.25;;;6.53;;
47749;SDS011;49810;48.160;10.812;2023-06-01T00:51:48;13.13;;;7.00;;
47749;SDS011;49810;48.160;10.812;2023-06-01T00:54:16;12.45;;;7.28;;
47749;SDS011;49810;48.160;10.812;2023-06-01T00:56:44;13.23;;;6.53;;
47749;SDS011;49810;48.160;10.812;2023-06-01T00:59:14;11.98;;;6.60;;
47749;SDS011;49810;48.160;10.812;2023-06-01T01:01:42;14.65;;;6.97;;
47749;SDS011;49810;48.160;10.812;2023-06-01T01:04:10;12.55;;;7.03;;
47749;SDS011;49810;48.160;10.812;2023-06-01T01:06:45;13.07;;;7.00;;
47749;SDS011;49810;48.160;10.812;2023-06-01T01:09:18;13.23;;;7.55;;
47749;SDS011;49810;48.160;10.812;2023-06-01T01:11:50;13.25;;;7.13;;
47749;SDS011;49810;48.160;10.812;2023-06-01T01:14:22;13.90;;;7.63;;
47749;SDS011;49810;48.160;10.812;2023-06-01T01:16:53;13.07;;;7.30;;
47749;SDS011;49810;48.160;10.812;2023-06-01T01:22:20;13.13;;;7.20;;
47749;SDS011;49810;48.160;10.812;2023-06-01T01:24:55;15.05;;;7.95;;
47749;SDS011;49810;48.160;10.812;2023-06-01T01:27:33;10.93;;;7.18;;
47749;SDS011;49810;48.160;10.812;2023-06-01T01:30:06;16.45;;;7.32;;
47749;SDS011;49810;48.160;10.812;2023-06-01T01:32:35;17.40;;;7.75;;
47749;SDS011;49810;48.160;10.812;2023-06-01T01:35:05;13.45;;;7.32;;
47749;SDS011;49810;48.160;10.812;2023-06-01T01:37:35;13.32;;;7.35;;
47749;SDS011;49810;48.160;10.812;2023-06-01T01:40:03;15.60;;;7.55;;
47749;SDS011;49810;48.160;10.812;2023-06-01T01:42:33;12.57;;;7.20;;
47749;SDS011;49810;48.160;10.812;2023-06-01T01:45:02;15.75;;;7.63;;
47749;SDS011;49810;48.160;10.812;2023-06-01T01:47:34;16.52;;;7.75;;
47749;SDS011;49810;48.160;10.812;2023-06-01T01:50:05;15.98;;;7.68;;
47749;SDS011;49810;48.160;10.812;2023-06-01T01:52:34;18.55;;;8.35;;
47749;SDS011;49810;48.160;10.812;2023-06-01T01:55:06;16.80;;;7.88;;
47749;SDS011;49810;48.160;10.812;2023-06-01T01:57:35;16.83;;;8.40;;
47749;SDS011;49810;48.160;10.812;2023-06-01T02:00:04;15.65;;;7.22;;
47749;SDS011;49810;48.160;10.812;2023-06-01T02:02:39;21.45;;;8.40;;
47749;SDS011;49810;48.160;10.812;2023-06-01T02:05:07;15.50;;;8.18;;
47749;SDS011;49810;48.160;10.812;2023-06-01T02:07:36;19.35;;;8.55;;
47749;SDS011;49810;48.160;10.812;2023-06-01T02:10:05;15.05;;;8.43;;
47749;SDS011;49810;48.160;10.812;2023-06-01T02:12:33;12.93;;;7.88;;
47749;SDS011;49810;48.160;10.812;2023-06-01T02:15:01;20.35;;;9.23;;
47749;SDS011;49810;48.160;10.812;2023-06-01T02:17:29;17.50;;;8.15;;
47749;SDS011;49810;48.160;10.812;2023-06-01T02:19:58;14.43;;;8.57;;
47749;SDS011;49810;48.160;10.812;2023-06-01T02:22:29;24.15;;;9.68;;
47749;SDS011;49810;48.160;10.812;2023-06-01T02:24:56;18.08;;;8.95;;
47749;SDS011;49810;48.160;10.812;2023-06-01T02:27:24;18.20;;;8.10;;
47749;SDS011;49810;48.160;10.812;2023-06-01T02:29:52;14.07;;;8.02;;
47749;SDS011;49810;48.160;10.812;2023-06-01T02:32:20;14.93;;;7.78;;
47749;SDS011;49810;48.160;10.812;2023-06-01T02:34:49;18.65;;;8.50;;
47749;SDS011;49810;48.160;10.812;2023-06-01T02:37:18;17.27;;;8.73;;
47749;SDS011;49810;48.160;10.812;2023-06-01T02:39:46;20.00;;;9.15;;
47749;SDS011;49810;48.160;10.812;2023-06-01T02:42:14;15.82;;;8.40;;
47749;SDS011;49810;48.160;10.812;2023-06-01T02:44:42;13.68;;;7.85;;
47749;SDS011;49810;48.160;10.812;2023-06-01T02:47:11;15.25;;;8.48;;
47749;SDS011;49810;48.160;10.812;2023-06-01T02:49:38;20.15;;;8.82;;
47749;SDS011;49810;48.160;10.812;2023-06-01T02:52:07;15.60;;;8.20;;
47749;SDS011;49810;48.160;10.812;2023-06-01T02:54:36;14.52;;;8.50;;
47749;SDS011;49810;48.160;10.812;2023-06-01T02:57:23;22.33;;;8.98;;
47749;SDS011;49810;48.160;10.812;2023-06-01T02:59:56;18.60;;;8.32;;
47749;SDS011;49810;48.160;10.812;2023-06-01T03:02:24;17.73;;;8.82;;
47749;SDS011;49810;48.160;10.812;2023-06-01T03:04:52;13.52;;;8.55;;
47749;SDS011;49810;48.160;10.812;2023-06-01T03:07:21;14.00;;;8.60;;
47749;SDS011;49810;48.160;10.812;2023-06-01T03:09:53;13.63;;;8.65;;
47749;SDS011;49810;48.160;10.812;2023-06-01T03:12:40;15.10;;;8.38;;
47749;SDS011;49810;48.160;10.812;2023-06-01T03:15:09;15.80;;;7.95;;
47749;SDS011;49810;48.160;10.812;2023-06-01T03:17:37;13.18;;;7.68;;
47749;SDS011;49810;48.160;10.812;2023-06-01T03:20:06;15.77;;;8.45;;
47749;SDS011;49810;48.160;10.812;2023-06-01T03:22:41;19.15;;;8.63;;
47749;SDS011;49810;48.160;10.812;2023-06-01T03:25:11;11.95;;;8.80;;
47749;SDS011;49810;48.160;10.812;2023-06-01T03:27:40;12.25;;;8.13;;
47749;SDS011;49810;48.160;10.812;2023-06-01T03:30:08;16.98;;;9.07;;
47749;SDS011;49810;48.160;10.812;2023-06-01T03:32:41;17.92;;;8.63;;
47749;SDS011;49810;48.160;10.812;2023-06-01T03:35:10;17.20;;;10.02;;
47749;SDS011;49810;48.160;10.812;2023-06-01T03:37:39;14.00;;;8.93;;
47749;SDS011;49810;48.160;10.812;2023-06-01T03:40:08;16.80;;;9.60;;
47749;SDS011;49810;48.160;10.812;2023-06-01T03:42:40;15.00;;;9.10;;
47749;SDS011;49810;48.160;10.812;2023-06-01T03:45:09;17.20;;;8.95;;
47749;SDS011;49810;48.160;10.812;2023-06-01T03:47:37;16.83;;;9.50;;
47749;SDS011;49810;48.160;10.812;2023-06-01T03:50:06;16.08;;;9.60;;
47749;SDS011;49810;48.160;10.812;2023-06-01T03:52:36;15.93;;;8.75;;
47749;SDS011;49810;48.160;10.812;2023-06-01T03:55:05;13.60;;;8.15;;
47749;SDS011;49810;48.160;10.812;2023-06-01T03:58:01;20.75;;;9.98;;
47749;SDS011;49810;48.160;10.812;2023-06-01T04:00:32;13.30;;;8.90;;
47749;SDS011;49810;48.160;10.812;2023-06-01T04:03:02;16.77;;;8.48;;
47749;SDS011;49810;48.160;10.812;2023-06-01T04:05:35;18.08;;;9.40;;
47749;SDS011;49810;48.160;10.812;2023-06-01T04:08:04;15.88;;;8.88;;
47749;SDS011;49810;48.160;10.812;2023-06-01T04:10:32;18.65;;;9.38;;
47749;SDS011;49810;48.160;10.812;2023-06-01T04:13:02;17.83;;;9.50;;
47749;SDS011;49810;48.160;10.812;2023-06-01T04:15:30;17.90;;;8.90;;
47749;SDS011;49810;48.160;10.812;2023-06-01T04:18:00;19.17;;;9.30;;
47749;SDS011;49810;48.160;10.812;2023-06-01T04:20:41;15.13;;;9.18;;
47749;SDS011;49810;48.160;10.812;2023-06-01T04:23:08;14.45;;;8.55;;
47749;SDS011;49810;48.160;10.812;2023-06-01T04:25:36;15.80;;;8.65;;
47749;SDS011;49810;48.160;10.812;2023-06-01T04:28:07;14.23;;;8.23;;
47749;SDS011;49810;48.160;10.812;2023-06-01T04:30:39;18.73;;;9.27;;
47749;SDS011;49810;48.160;10.812;2023-06-01T04:33:07;14.18;;;8.95;;
47749;SDS011;49810;48.160;10.812;2023-06-01T04:35:37;16.75;;;9.05;;
47749;SDS011;49810;48.160;10.812;2023-06-01T04:38:05;16.90;;;9.43;;
47749;SDS011;49810;48.160;10.812;2023-06-01T04:40:35;15.32;;;9.00;;
47749;SDS011;49810;48.160;10.812;2023-06-01T04:43:03;15.85;;;9.32;;
47749;SDS011;49810;48.160;10.812;2023-06-01T04:45:35;16.25;;;9.25;;
47749;SDS011;49810;48.160;10.812;2023-06-01T04:48:05;15.98;;;9.57;;
47749;SDS011;49810;48.160;10.812;2023-06-01T04:50:41;17.77;;;10.05;;
47749;SDS011;49810;48.160;10.812;2023-06-01T04:53:10;16.30;;;9.25;;
47749;SDS011;49810;48.160;10.812;2023-06-01T04:55:38;14.00;;;8.90;;
47749;SDS011;49810;48.160;10.812;2023-06-01T04:58:08;15.27;;;9.27;;
47749;SDS011;49810;48.160;10.812;2023-06-01T05:00:38;18.88;;;9.57;;
47749;SDS011;49810;48.160;10.812;2023-06-01T05:03:06;14.30;;;9.43;;
47749;SDS011;49810;48.160;10.812;2023-06-01T05:05:34;15.32;;;9.77;;
47749;SDS011;49810;48.160;10.812;2023-06-01T05:08:05;15.20;;;9.38;;
47749;SDS011;49810;48.160;10.812;2023-06-01T05:10:34;17.20;;;9.30;;
47749;SDS011;49810;48.160;10.812;2023-06-01T05:13:02;14.60;;;9.43;;
47749;SDS011;49810;48.160;10.812;2023-06-01T05:15:30;14.20;;;9.25;;
47749;SDS011;49810;48.160;10.812;2023-06-01T05:17:59;15.30;;;8.75;;
47749;SDS011;49810;48.160;10.812;2023-06-01T05:20:27;17.65;;;9.23;;
47749;SDS011;49810;48.160;10.812;2023-06-01T05:22:58;15.60;;;9.48;;
47749;SDS011;49810;48.160;10.812;2023-06-01T05:25:27;15.35;;;9.75;;
47749;SDS011;49810;48.160;10.812;2023-06-01T05:27:56;14.80;;;9.10;;
47749;SDS011;49810;48.160;10.812;2023-06-01T05:30:25;13.75;;;8.82;;
47749;SDS011;49810;48.160;10.812;2023-06-01T05:32:53;15.27;;;8.95;;
47749;SDS011;49810;48.160;10.812;2023-06-01T05:35:23;17.50;;;8.35;;
47749;SDS011;49810;48.160;10.812;2023-06-01T05:37:52;13.38;;;8.50;;
47749;SDS011;49810;48.160;10.812;2023-06-01T05:40:20;17.10;;;8.77;;
47749;SDS011;49810;48.160;10.812;2023-06-01T05:42:48;17.50;;;8.65;;
47749;SDS011;49810;48.160;10.812;2023-06-01T05:45:16;15.98;;;8.98;;
47749;SDS011;49810;48.160;10.812;2023-06-01T05:47:45;20.35;;;9.57;;
47749;SDS011;49810;48.160;10.812;2023-06-01T05:50:13;14.88;;;8.65;;
47749;SDS011;49810;48.160;10.812;2023-06-01T05:52:43;16.25;;;9.73;;
47749;SDS011;49810;48.160;10.812;2023-06-01T05:55:10;13.63;;;8.38;;
47749;SDS011;49810;48.160;10.812;2023-06-01T05:57:39;12.73;;;8.25;;
47749;SDS011;49810;48.160;10.812;2023-06-01T06:00:07;13.30;;;8.50;;
47749;SDS011;49810;48.160;10.812;2023-06-01T06:02:47;14.50;;;8.20;;
47749;SDS011;49810;48.160;10.812;2023-06-01T06:05:15;15.60;;;7.90;;
47749;SDS011;49810;48.160;10.812;2023-06-01T06:07:44;17.20;;;9.57;;
47749;SDS011;49810;48.160;10.812;2023-06-01T06:10:13;16.02;;;8.45;;
47749;SDS011;49810;48.160;10.812;2023-06-01T06:12:44;12.35;;;8.07;;
47749;SDS011;49810;48.160;10.812;2023-06-01T06:15:12;15.40;;;8.25;;
47749;SDS011;49810;48.160;10.812;2023-06-01T06:17:40;12.35;;;8.35;;
47749;SDS011;49810;48.160;10.812;2023-06-01T06:20:09;16.23;;;8.50;;
47749;SDS011;49810;48.160;10.812;2023-06-01T06:22:37;16.33;;;7.28;;
47749;SDS011;49810;48.160;10.812;2023-06-01T06:25:07;18.83;;;7.63;;
47749;SDS011;49810;48.160;10.812;2023-06-01T06:27:35;12.02;;;6.85;;
47749;SDS011;49810;48.160;10.812;2023-06-01T06:30:03;13.65;;;6.82;;
47749;SDS011;49810;48.160;10.812;2023-06-01T06:32:34;12.90;;;7.15;;
47749;SDS011;49810;48.160;10.812;2023-06-01T06:35:02;14.98;;;7.40;;
47749;SDS011;49810;48.160;10.812;2023-06-01T06:37:31;14.40;;;7.47;;
47749;SDS011;49810;48.160;10.812;2023-06-01T06:39:59;15.25;;;6.95;;
47749;SDS011;49810;48.160;10.812;2023-06-01T06:42:30;15.68;;;7.18;;
47749;SDS011;49810;48.160;10.812;2023-06-01T06:44:59;15.85;;;7.15;;
47749;SDS011;49810;48.160;10.812;2023-06-01T06:47:28;15.05;;;7.07;;
47749;SDS011;49810;48.160;10.812;2023-06-01T06:49:56;12.25;;;6.78;;
47749;SDS011;49810;48.160;10.812;2023-06-01T06:52:24;17.20;;;8.40;;
47749;SDS011;49810;48.160;10.812;2023-06-01T06:54:52;11.27;;;7.25;;
47749;SDS011;49810;48.160;10.812;2023-06-01T06:57:20;14.50;;;7.70;;
47749;SDS011;49810;48.160;10.812;2023-06-01T06:59:49;11.65;;;7.47;;
47749;SDS011;49810;48.160;10.812;2023-06-01T07:02:17;10.43;;;6.88;;
47749;SDS011;49810;48.160;10.812;2023-06-01T07:04:46;12.38;;;7.10;;
47749;SDS011;49810;48.160;10.812;2023-06-01T07:07:13;15.48;;;7.20;;
47749;SDS011;49810;48.160;10.812;2023-06-01T07:09:41;13.25;;;7.32;;
47749;SDS011;49810;48.160;10.812;2023-06-01T07:12:09;19.65;;;7.15;;
47749;SDS011;49810;48.160;10.812;2023-06-01T07:14:37;14.73;;;7.90;;
47749;SDS011;49810;48.160;10.812;2023-06-01T07:17:07;13.70;;;7.40;;
47749;SDS011;49810;48.160;10.812;2023-06-01T07:19:38;11.63;;;7.15;;
47749;SDS011;49810;48.160;10.812;2023-06-01T07:22:06;12.98;;;7.43;;
47749;SDS011;49810;48.160;10.812;2023-06-01T07:24:34;15.05;;;8.57;;
47749;SDS011;49810;48.160;10.812;2023-06-01T07:27:02;12.88;;;7.25;;
47749;SDS011;49810;48.160;10.812;2023-06-01T07:29:31;13.43;;;7.72;;
47749;SDS011;49810;48.160;10.812;2023-06-01T07:31:59;13.05;;;7.03;;
47749;SDS011;49810;48.160;10.812;2023-06-01T07:34:29;12.68;;;7.32;;
47749;SDS011;49810;48.160;10.812;2023-06-01T07:36:59;13.95;;;7.85;;
47749;SDS011;49810;48.160;10.812;2023-06-01T07:39:42;15.48;;;7.90;;
47749;SDS011;49810;48.160;10.812;2023-06-01T07:42:10;14.63;;;7.60;;
47749;SDS011;49810;48.160;10.812;2023-06-01T07:44:38;13.95;;;8.10;;
47749;SDS011;49810;48.160;10.812;2023-06-01T07:47:07;17.35;;;7.68;;
47749;SDS011;49810;48.160;10.812;2023-06-01T07:49:36;11.90;;;7.50;;
47749;SDS011;49810;48.160;10.812;2023-06-01T07:52:04;20.75;;;7.80;;
47749;SDS011;49810;48.160;10.812;2023-06-01T07:54:33;13.77;;;7.45;;
47749;SDS011;49810;48.160;10.812;2023-06-01T07:57:02;17.10;;;7.40;;
47749;SDS011;49810;48.160;10.812;2023-06-01T07:59:31;12.65;;;7.00;;
47749;SDS011;49810;48.160;10.812;2023-06-01T08:01:59;14.40;;;7.25;;
47749;SDS011;49810;48.160;10.812;2023-06-01T08:04:27;17.85;;;7.55;;
47749;SDS011;49810;48.160;10.812;2023-06-01T08:07:02;16.98;;;6.90;;
47749;SDS011;49810;48.160;10.812;2023-06-01T08:09:30;12.90;;;7.40;;
47749;SDS011;49810;48.160;10.812;2023-06-01T08:11:58;11.60;;;7.07;;
47749;SDS011;49810;48.160;10.812;2023-06-01T08:14:26;12.68;;;6.65;;
47749;SDS011;49810;48.160;10.812;2023-06-01T08:16:54;12.10;;;6.55;;
47749;SDS011;49810;48.160;10.812;2023-06-01T08:19:23;11.18;;;6.07;;
47749;SDS011;49810;48.160;10.812;2023-06-01T08:21:51;14.85;;;6.78;;
47749;SDS011;49810;48.160;10.812;2023-06-01T08:24:21;12.43;;;7.00;;
47749;SDS011;49810;48.160;10.812;2023-06-01T08:26:54;12.02;;;6.80;;
47749;SDS011;49810;48.160;10.812;2023-06-01T08:29:23;13.68;;;6.43;;
47749;SDS011;49810;48.160;10.812;2023-06-01T08:34:38;14.13;;;7.03;;
47749;SDS011;49810;48.160;10.812;2023-06-01T08:37:07;13.95;;;6.55;;
47749;SDS011;49810;48.160;10.812;2023-06-01T08:39:36;11.13;;;6.65;;
47749;SDS011;49810;48.160;10.812;2023-06-01T08:42:06;15.00;;;7.82;;
47749;SDS011;49810;48.160;10.812;2023-06-01T08:44:38;15.10;;;7.38;;
47749;SDS011;49810;48.160;10.812;2023-06-01T08:47:06;14.90;;;7.03;;
47749;SDS011;49810;48.160;10.812;2023-06-01T08:49:35;15.32;;;7.00;;
47749;SDS011;49810;48.160;10.812;2023-06-01T08:52:08;13.40;;;7.13;;
47749;SDS011;49810;48.160;10.812;2023-06-01T08:54:38;13.07;;;7.13;;
47749;SDS011;49810;48.160;10.812;2023-06-01T08:57:06;14.73;;;7.43;;
47749;SDS011;49810;48.160;10.812;2023-06-01T08:59:35;14.00;;;7.22;;
47749;SDS011;49810;48.160;10.812;2023-06-01T09:02:03;12.95;;;7.05;;
47749;SDS011;49810;48.160;10.812;2023-06-01T09:04:31;11.07;;;6.38;;
47749;SDS011;49810;48.160;10.812;2023-06-01T09:07:01;12.10;;;6.80;;
47749;SDS011;49810;48.160;10.812;2023-06-01T09:09:29;16.73;;;7.32;;
47749;SDS011;49810;48.160;10.812;2023-06-01T09:12:17;11.88;;;6.75;;
47749;SDS011;49810;48.160;10.812;2023-06-01T09:14:46;13.43;;;7.10;;
47749;SDS011;49810;48.160;10.812;2023-06-01T09:17:14;11.90;;;7.15;;
47749;SDS011;49810;48.160;10.812;2023-06-01T09:19:43;10.30;;;6.55;;
47749;SDS011;49810;48.160;10.812;2023-06-01T09:22:11;16.02;;;6.47;;
47749;SDS011;49810;48.160;10.812;2023-06-01T09:24:39;10.13;;;6.57;;
47749;SDS011;49810;48.160;10.812;2023-06-01T09:27:08;10.65;;;6.22;;
47749;SDS011;49810;48.160;10.812;2023-06-01T09:29:37;13.50;;;6.35;;
47749;SDS011;49810;48.160;10.812;2023-06-01T09:32:05;10.35;;;6.03;;
47749;SDS011;49810;48.160;10.812;2023-06-01T09:34:33;10.80;;;5.95;;
47749;SDS011;49810;48.160;10.812;2023-06-01T09:37:11;8.98;;;6.22;;
47749;SDS011;49810;48.160;10.812;2023-06-01T09:39:40;14.38;;;6.43;;
47749;SDS011;49810;48.160;10.812;2023-06-01T09:42:09;10.73;;;6.53;;
47749;SDS011;49810;48.160;10.812;2023-06-01T09:44:39;14.70;;;6.18;;
47749;SDS011;49810;48.160;10.812;2023-06-01T09:47:08;16.42;;;6.90;;
47749;SDS011;49810;48.160;10.812;2023-06-01T09:49:38;11.57;;;6.15;;
47749;SDS011;49810;48.160;10.812;2023-06-01T09:52:10;10.88;;;6.78;;
47749;SDS011;49810;48.160;10.812;2023-06-01T09:54:42;14.48;;;6.75;;
47749;SDS011;49810;48.160;10.812;2023-06-01T09:57:10;10.35;;;6.38;;
47749;SDS011;49810;48.160;10.812;2023-06-01T09:59:41;11.35;;;6.78;;
47749;SDS011;49810;48.160;10.812;2023-06-01T10:02:13;12.98;;;6.38;;
47749;SDS011;49810;48.160;10.812;2023-06-01T10:04:42;15.25;;;7.95;;
47749;SDS011;49810;48.160;10.812;2023-06-01T10:07:12;15.50;;;6.35;;
47749;SDS011;49810;48.160;10.812;2023-06-01T10:09:41;10.25;;;6.32;;
47749;SDS011;49810;48.160;10.812;2023-06-01T10:12:09;12.52;;;6.38;;
47749;SDS011;49810;48.160;10.812;2023-06-01T10:14:38;10.00;;;6.40;;
47749;SDS011;49810;48.160;10.812;2023-06-01T10:17:08;10.43;;;6.75;;
47749;SDS011;49810;48.160;10.812;2023-06-01T10:19:38;11.88;;;6.45;;
47749;SDS011;49810;48.160;10.812;2023-06-01T10:22:06;12.20;;;6.30;;
47749;SDS011;49810;48.160;10.812;2023-06-01T10:24:34;12.10;;;6.93;;
47749;SDS011;49810;48.160;10.812;2023-06-01T10:27:10;8.70;;;6.35;;
47749;SDS011;49810;48.160;10.812;2023-06-01T10:29:41;12.77;;;6.43;;
47749;SDS011;49810;48.160;10.812;2023-06-01T10:34:58;10.70;;;6.38;;
47749;SDS011;49810;48.160;10.812;2023-06-01T10:37:26;11.75;;;6.38;;
47749;SDS011;49810;48.160;10.812;2023-06-01T10:40:06;13.85;;;6.43;;
47749;SDS011;49810;48.160;10.812;2023-06-01T10:42:37;12.00;;;6.13;;
47749;SDS011;49810;48.160;10.812;2023-06-01T10:45:06;10.27;;;6.20;;
47749;SDS011;49810;48.160;10.812;2023-06-01T10:47:44;12.88;;;6.30;;
47749;SDS011;49810;48.160;10.812;2023-06-01T10:50:16;12.63;;;6.70;;
47749;SDS011;49810;48.160;10.812;2023-06-01T10:52:45;12.68;;;6.43;;
47749;SDS011;49810;48.160;10.812;2023-06-01T10:55:20;9.65;;;5.80;;
47749;SDS011;49810;48.160;10.812;2023-06-01T10:57:51;11.10;;;6.00;;
47749;SDS011;49810;48.160;10.812;2023-06-01T11:00:39;12.70;;;5.97;;
47749;SDS011;49810;48.160;10.812;2023-06-01T11:03:08;10.32;;;6.43;;
47749;SDS011;49810;48.160;10.812;2023-06-01T11:05:38;9.95;;;6.03;;
47749;SDS011;49810;48.160;10.812;2023-06-01T11:08:07;11.98;;;6.30;;
47749;SDS011;49810;48.160;10.812;2023-06-01T11:10:54;9.13;;;5.75;;
47749;SDS011;49810;48.160;10.812;2023-06-01T11:13:23;12.32;;;5.65;;
47749;SDS011;49810;48.160;10.812;2023-06-01T11:18:48;8.10;;;5.68;;
47749;SDS011;49810;48.160;10.812;2023-06-01T11:21:19;11.32;;;6.13;;
47749;SDS011;49810;48.160;10.812;2023-06-01T11:23:49;11.43;;;6.05;;
47749;SDS011;49810;48.160;10.812;2023-06-01T11:26:17;13.75;;;5.88;;
47749;SDS011;49810;48.160;10.812;2023-06-01T11:28:46;11.05;;;6.07;;
47749;SDS011;49810;48.160;10.812;2023-06-01T11:31:15;9.00;;;6.05;;
47749;SDS011;49810;48.160;10.812;2023-06-01T11:33:47;10.48;;;6.43;;
47749;SDS011;49810;48.160;10.812;2023-06-01T11:36:18;11.52;;;5.78;;
47749;SDS011;49810;48.160;10.812;2023-06-01T11:38:46;11.50;;;5.60;;
47749;SDS011;49810;48.160;10.812;2023-06-01T11:41:15;10.70;;;5.80;;
47749;SDS011;49810;48.160;10.812;2023-06-01T11:43:43;10.15;;;5.15;;
47749;SDS011;49810;48.160;10.812;2023-06-01T11:46:11;10.77;;;5.72;;
47749;SDS011;49810;48.160;10.812;2023-06-01T11:48:57;10.25;;;5.68;;
47749;SDS011;49810;48.160;10.812;2023-06-01T11:51:29;9.25;;;5.78;;
47749;SDS011;49810;48.160;10.812;2023-06-01T11:54:00;10.57;;;5.40;;
47749;SDS011;49810;48.160;10.812;2023-06-01T11:56:28;10.68;;;7.47;;
47749;SDS011;49810;48.160;10.812;2023-06-01T11:58:58;11.50;;;5.95;;
47749;SDS011;49810;48.160;10.812;2023-06-01T12:01:28;10.70;;;5.00;;
47749;SDS011;49810;48.160;10.812;2023-06-01T12:03:56;16.05;;;5.53;;
47749;SDS011;49810;48.160;10.812;2023-06-01T12:06:25;9.55;;;5.15;;
47749;SDS011;49810;48.160;10.812;2023-06-01T12:08:55;13.13;;;4.97;;
47749;SDS011;49810;48.160;10.812;2023-06-01T12:11:23;9.93;;;5.60;;
47749;SDS011;49810;48.160;10.812;2023-06-01T12:13:54;9.82;;;5.47;;
47749;SDS011;49810;48.160;10.812;2023-06-01T12:16:22;9.52;;;5.88;;
47749;SDS011;49810;48.160;10.812;2023-06-01T12:18:52;7.90;;;5.00;;
47749;SDS011;49810;48.160;10.812;2023-06-01T12:21:21;11.50;;;5.22;;
47749;SDS011;49810;48.160;10.812;2023-06-01T12:23:49;12.88;;;5.57;;
47749;SDS011;49810;48.160;10.812;2023-06-01T12:26:20;7.38;;;4.82;;
47749;SDS011;49810;48.160;10.812;2023-06-01T12:28:49;9.15;;;5.55;;
47749;SDS011;49810;48.160;10.812;2023-06-01T12:31:25;6.75;;;4.85;;
47749;SDS011;49810;48.160;10.812;2023-06-01T12:33:54;11.93;;;6.15;;
47749;SDS011;49810;48.160;10.812;2023-06-01T12:36:28;10.38;;;5.97;;
47749;SDS011;49810;48.160;10.812;2023-06-01T12:38:57;7.15;;;5.30;;
47749;SDS011;49810;48.160;10.812;2023-06-01T12:41:28;8.27;;;4.95;;
47749;SDS011;49810;48.160;10.812;2023-06-01T12:43:56;10.23;;;5.25;;
47749;SDS011;49810;48.160;10.812;2023-06-01T12:46:25;7.60;;;4.88;;
47749;SDS011;49810;48.160;10.812;2023-06-01T12:48:53;9.48;;;5.25;;
47749;SDS011;49810;48.160;10.812;2023-06-01T12:51:21;8.15;;;5.40;;
47749;SDS011;49810;48.160;10.812;2023-06-01T12:53:49;11.32;;;5.47;;
47749;SDS011;49810;48.160;10.812;2023-06-01T12:56:18;8.88;;;4.88;;
47749;SDS011;49810;48.160;10.812;2023-06-01T12:58:47;8.77;;;5.50;;
47749;SDS011;49810;48.160;10.812;2023-06-01T13:01:15;11.45;;;6.10;;
47749;SDS011;49810;48.160;10.812;2023-06-01T13:03:44;8.10;;;5.40;;
47749;SDS011;49810;48.160;10.812;2023-06-01T13:06:12;7.28;;;5.00;;
47749;SDS011;49810;48.160;10.812;2023-06-01T13:08:40;11.02;;;5.25;;
47749;SDS011;49810;48.160;10.812;2023-06-01T13:11:08;9.43;;;5.25;;
47749;SDS011;49810;48.160;10.812;2023-06-01T13:13:36;11.13;;;5.55;;
47749;SDS011;49810;48.160;10.812;2023-06-01T13:16:10;8.43;;;4.75;;
47749;SDS011;49810;48.160;10.812;2023-06-01T13:18:38;9.25;;;4.93;;
47749;SDS011;49810;48.160;10.812;2023-06-01T13:21:06;9.15;;;4.72;;
47749;SDS011;49810;48.160;10.812;2023-06-01T13:23:34;9.93;;;4.90;;
47749;SDS011;49810;48.160;10.812;2023-06-01T13:26:02;8.90;;;4.53;;
47749;SDS011;49810;48.160;10.812;2023-06-01T13:28:30;9.02;;;5.03;;
47749;SDS011;49810;48.160;10.812;2023-06-01T13:30:58;8.35;;;4.43;;
47749;SDS011;49810;48.160;10.812;2023-06-01T13:33:28;9.23;;;5.43;;
47749;SDS011;49810;48.160;10.812;2023-06-01T13:35:56;7.93;;;5.03;;
47749;SDS011;49810;48.160;10.812;2023-06-01T13:38:24;11.23;;;4.90;;
47749;SDS011;49810;48.160;10.812;2023-06-01T13:40:53;9.20;;;5.30;;
47749;SDS011;49810;48.160;10.812;2023-06-01T13:43:20;7.70;;;4.80;;
47749;SDS011;49810;48.160;10.812;2023-06-01T13:45:48;10.55;;;5.03;;
47749;SDS011;49810;48.160;10.812;2023-06-01T13:48:16;7.68;;;4.95;;
47749;SDS011;49810;48.160;10.812;2023-06-01T13:50:48;8.40;;;4.95;;
47749;SDS011;49810;48.160;10.812;2023-06-01T13:53:15;9.43;;;4.93;;
47749;SDS011;49810;48.160;10.812;2023-06-01T13:55:43;6.32;;;4.47;;
47749;SDS011;49810;48.160;10.812;2023-06-01T13:58:12;8.00;;;4.60;;
47749;SDS011;49810;48.160;10.812;2023-06-01T14:00:40;9.07;;;4.30;;
47749;SDS011;49810;48.160;10.812;2023-06-01T14:03:09;6.03;;;4.00;;
47749;SDS011;49810;48.160;10.812;2023-06-01T14:05:37;5.32;;;4.07;;
47749;SDS011;49810;48.160;10.812;2023-06-01T14:08:11;6.95;;;4.35;;
47749;SDS011;49810;48.160;10.812;2023-06-01T14:10:40;5.80;;;4.53;;
47749;SDS011;49810;48.160;10.812;2023-06-01T14:13:07;6.35;;;4.78;;
47749;SDS011;49810;48.160;10.812;2023-06-01T14:15:37;7.80;;;5.05;;
47749;SDS011;49810;48.160;10.812;2023-06-01T14:18:05;7.57;;;4.63;;
47749;SDS011;49810;48.160;10.812;2023-06-01T14:20:36;7.70;;;4.70;;
47749;SDS011;49810;48.160;10.812;2023-06-01T14:23:05;9.45;;;5.00;;
47749;SDS011;49810;48.160;10.812;2023-06-01T14:25:38;8.98;;;4.95;;
47749;SDS011;49810;48.160;10.812;2023-06-01T14:28:06;7.45;;;5.05;;
47749;SDS011;49810;48.160;10.812;2023-06-01T14:30:34;6.70;;;4.63;;
47749;SDS011;49810;48.160;10.812;2023-06-01T14:33:02;7.28;;;4.72;;
47749;SDS011;49810;48.160;10.812;2023-06-01T14:35:30;8.43;;;4.97;;
47749;SDS011;49810;48.160;10.812;2023-06-01T14:37:59;7.97;;;5.00;;
47749;SDS011;49810;48.160;10.812;2023-06-01T14:40:27;6.70;;;4.72;;
47749;SDS011;49810;48.160;10.812;2023-06-01T14:42:57;9.38;;;4.90;;
47749;SDS011;49810;48.160;10.812;2023-06-01T14:45:25;11.30;;;5.03;;
47749;SDS011;49810;48.160;10.812;2023-06-01T14:47:54;9.57;;;4.90;;
47749;SDS011;49810;48.160;10.812;2023-06-01T14:50:22;8.23;;;4.70;;